^^
Meteo Knjazevac Station Historical Data
Daily Summary for August 24, 2021 Units:  Both    English   Metric
Daily Weekly Monthly Yearly Custom
  High: Low: Average:
Temperature: 79.5 °F /  26.4 °C 59.2 °F /  15.1 °C 69.1 °F /  20.6 °C
Dew Point: 64.4 °F /  18 °C 53.4 °F /  11.9 °C 58.6 °F /  14.8 °C
Humidity: 86% 55% 70%
Wind Speed: 10mph /  16.1km/h - 2.5mph /  4km/h
Wind Gust: 20mph /  32.2km/h - -
Wind- - SW
Pressure: 30.30 in /  1026 hPa 30.09 in /  1018.8 hPa -
Precipitation: 0.00 in /  0 mm    
Historical Graphs
 
 
Tabular Data for August 24, 2021
Time Temperature Dew Point Pressure Wind Wind Speed Wind Gust Humidity Rainfall Rate (Hourly) solar Conditions
00:00 71.8 °F /  22.1 °C 55.7 °F /  13.2 °C 30.09in /  1018.8hPa West 6mph /  9.7km/h 8mph /  12.9km/h 57% 0.00in /  0mm 0 W/m2
00:10 71.4 °F /  21.9 °C 56.8 °F /  13.8 °C 30.10in /  1019.2hPa West 9mph /  14.5km/h 20mph /  32.2km/h 60% 0.00in /  0mm 0 W/m2
00:20 70.5 °F /  21.4 °C 57.3 °F /  14.1 °C 30.11in /  1019.5hPa WSW 9mph /  14.5km/h 17mph /  27.4km/h 63% 0.00in /  0mm 0 W/m2
00:30 69.6 °F /  20.9 °C 57.3 °F /  14.1 °C 30.11in /  1019.5hPa West 8mph /  12.9km/h 17mph /  27.4km/h 65% 0.00in /  0mm 0 W/m2
00:40 69.1 °F /  20.6 °C 56.8 °F /  13.8 °C 30.12in /  1019.9hPa West 6mph /  9.7km/h 11mph /  17.7km/h 65% 0.00in /  0mm 0 W/m2
00:50 68.7 °F /  20.4 °C 57.3 °F /  14.1 °C 30.13in /  1020.2hPa WNW 6mph /  9.7km/h 12mph /  19.3km/h 67% 0.00in /  0mm 0 W/m2
01:00 68.4 °F /  20.2 °C 57 °F /  13.9 °C 30.14in /  1020.5hPa WNW 2mph /  3.2km/h 8mph /  12.9km/h 67% 0.00in /  0mm 0 W/m2
01:10 68 °F /  20 °C 56.6 °F /  13.7 °C 30.15in /  1020.9hPa SW 6mph /  9.7km/h 9mph /  14.5km/h 67% 0.00in /  0mm 0 W/m2
01:20 67.5 °F /  19.7 °C 56.1 °F /  13.4 °C 30.14in /  1020.5hPa WSW 8mph /  12.9km/h 15mph /  24.1km/h 67% 0.00in /  0mm 0 W/m2
01:30 67.1 °F /  19.5 °C 55.8 °F /  13.2 °C 30.15in /  1020.9hPa WSW 10mph /  16.1km/h 15mph /  24.1km/h 67% 0.00in /  0mm 0 W/m2
01:40 66.6 °F /  19.2 °C 55.7 °F /  13.2 °C 30.15in /  1020.9hPa WSW 5mph /  8km/h 14mph /  22.5km/h 68% 0.00in /  0mm 0 W/m2
01:50 66 °F /  18.9 °C 56 °F /  13.3 °C 30.16in /  1021.2hPa WSW 7mph /  11.3km/h 13mph /  20.9km/h 70% 0.00in /  0mm 0 W/m2
02:00 65.3 °F /  18.5 °C 56 °F /  13.3 °C 30.16in /  1021.2hPa SW 8mph /  12.9km/h 14mph /  22.5km/h 72% 0.00in /  0mm 0 W/m2
02:10 64.6 °F /  18.1 °C 55.7 °F /  13.2 °C 30.16in /  1021.2hPa SW 10mph /  16.1km/h 15mph /  24.1km/h 73% 0.00in /  0mm 0 W/m2
02:20 64 °F /  17.8 °C 55.6 °F /  13.1 °C 30.17in /  1021.6hPa SW 9mph /  14.5km/h 13mph /  20.9km/h 74% 0.00in /  0mm 0 W/m2
02:30 63.7 °F /  17.6 °C 55.2 °F /  12.9 °C 30.17in /  1021.6hPa SW 8mph /  12.9km/h 12mph /  19.3km/h 74% 0.00in /  0mm 0 W/m2
02:40 63.1 °F /  17.3 °C 55.1 °F /  12.8 °C 30.18in /  1021.9hPa SW 8mph /  12.9km/h 12mph /  19.3km/h 75% 0.00in /  0mm 0 W/m2
02:50 62.6 °F /  17 °C 54.6 °F /  12.6 °C 30.18in /  1021.9hPa SW 6mph /  9.7km/h 13mph /  20.9km/h 75% 0.00in /  0mm 0 W/m2
03:00 62.4 °F /  16.9 °C 54.4 °F /  12.4 °C 30.18in /  1021.9hPa WSW 7mph /  11.3km/h 11mph /  17.7km/h 75% 0.00in /  0mm 0 W/m2
03:10 62.1 °F /  16.7 °C 54 °F /  12.2 °C 30.19in /  1022.2hPa WSW 5mph /  8km/h 9mph /  14.5km/h 75% 0.00in /  0mm 0 W/m2
03:20 61.5 °F /  16.4 °C 54.2 °F /  12.3 °C 30.19in /  1022.2hPa SW 2mph /  3.2km/h 8mph /  12.9km/h 77% 0.00in /  0mm 0 W/m2
03:30 61.2 °F /  16.2 °C 54.2 °F /  12.3 °C 30.19in /  1022.2hPa SSW 3mph /  4.8km/h 5mph /  8km/h 78% 0.00in /  0mm 0 W/m2
03:40 60.8 °F /  16 °C 53.9 °F /  12.2 °C 30.20in /  1022.6hPa SSW 3mph /  4.8km/h 5mph /  8km/h 78% 0.00in /  0mm 0 W/m2
03:50 60.6 °F /  15.9 °C 53.7 °F /  12.1 °C 30.19in /  1022.2hPa SSW 2mph /  3.2km/h 6mph /  9.7km/h 78% 0.00in /  0mm 0 W/m2
04:00 60.4 °F /  15.8 °C 53.5 °F /  11.9 °C 30.20in /  1022.6hPa WSW 1mph /  1.6km/h 4mph /  6.4km/h 78% 0.00in /  0mm 0 W/m2
04:10 60.3 °F /  15.7 °C 53.7 °F /  12.1 °C 30.20in /  1022.6hPa ENE 1mph /  1.6km/h 2mph /  3.2km/h 79% 0.00in /  0mm 0 W/m2
04:20 60.3 °F /  15.7 °C 53.7 °F /  12.1 °C 30.20in /  1022.6hPa SW 2mph /  3.2km/h 3mph /  4.8km/h 79% 0.00in /  0mm 0 W/m2
04:30 60.1 °F /  15.6 °C 53.5 °F /  11.9 °C 30.20in /  1022.6hPa West 1mph /  1.6km/h 3mph /  4.8km/h 79% 0.00in /  0mm 0 W/m2
04:40 60.1 °F /  15.6 °C 53.5 °F /  11.9 °C 30.20in /  1022.6hPa Calm   2mph /  3.2km/h 79% 0.00in /  0mm 0 W/m2
04:50 59.9 °F /  15.5 °C 53.7 °F /  12.1 °C 30.21in /  1022.9hPa SW 1mph /  1.6km/h 4mph /  6.4km/h 80% 0.00in /  0mm 0 W/m2
05:00 59.7 °F /  15.4 °C 53.5 °F /  11.9 °C 30.22in /  1023.2hPa Calm   1mph /  1.6km/h 80% 0.00in /  0mm 3 W/m2
05:10 59.5 °F /  15.3 °C 53.4 °F /  11.9 °C 30.22in /  1023.2hPa NE 1mph /  1.6km/h 2mph /  3.2km/h 80% 0.00in /  0mm 6 W/m2
05:20 59.4 °F /  15.2 °C 53.5 °F /  11.9 °C 30.22in /  1023.2hPa Calm   2mph /  3.2km/h 81% 0.00in /  0mm 10 W/m2
05:30 59.4 °F /  15.2 °C 53.5 °F /  11.9 °C 30.22in /  1023.2hPa SSW 1mph /  1.6km/h 4mph /  6.4km/h 81% 0.00in /  0mm 17 W/m2
05:40 59.2 °F /  15.1 °C 54 °F /  12.2 °C 30.22in /  1023.2hPa WSW 2mph /  3.2km/h 5mph /  8km/h 83% 0.00in /  0mm 19 W/m2
05:50 59.2 °F /  15.1 °C 54 °F /  12.2 °C 30.22in /  1023.2hPa SW 1mph /  1.6km/h 4mph /  6.4km/h 83% 0.00in /  0mm 23 W/m2
06:00 59.2 °F /  15.1 °C 54 °F /  12.2 °C 30.22in /  1023.2hPa Calm   2mph /  3.2km/h 83% 0.00in /  0mm 27 W/m2
06:10 59.2 °F /  15.1 °C 54 °F /  12.2 °C 30.23in /  1023.6hPa Calm   2mph /  3.2km/h 83% 0.00in /  0mm 41 W/m2
06:20 59.4 °F /  15.2 °C 54.2 °F /  12.3 °C 30.23in /  1023.6hPa ESE 2mph /  3.2km/h 5mph /  8km/h 83% 0.00in /  0mm 51 W/m2
06:30 59.5 °F /  15.3 °C 54.4 °F /  12.4 °C 30.23in /  1023.6hPa South 1mph /  1.6km/h 4mph /  6.4km/h 83% 0.00in /  0mm 54 W/m2
06:40 59.7 °F /  15.4 °C 54.9 °F /  12.7 °C 30.25in /  1024.3hPa West 1mph /  1.6km/h 3mph /  4.8km/h 84% 0.00in /  0mm 83 W/m2
06:50 59.9 °F /  15.5 °C 55 °F /  12.8 °C 30.25in /  1024.3hPa Calm   2mph /  3.2km/h 84% 0.00in /  0mm 122 W/m2
07:00 60.1 °F /  15.6 °C 54.9 °F /  12.7 °C 30.25in /  1024.3hPa Calm   2mph /  3.2km/h 83% 0.00in /  0mm 118 W/m2
07:10 60.3 °F /  15.7 °C 55.1 °F /  12.8 °C 30.25in /  1024.3hPa West 1mph /  1.6km/h 3mph /  4.8km/h 83% 0.00in /  0mm 128 W/m2
07:20 60.6 °F /  15.9 °C 55.4 °F /  13 °C 30.25in /  1024.3hPa South 2mph /  3.2km/h 4mph /  6.4km/h 83% 0.00in /  0mm 135 W/m2
07:30 60.8 °F /  16 °C 55.6 °F /  13.1 °C 30.25in /  1024.3hPa SSW 2mph /  3.2km/h 3mph /  4.8km/h 83% 0.00in /  0mm 174 W/m2
07:40 61 °F /  16.1 °C 55.8 °F /  13.2 °C 30.25in /  1024.3hPa SSW 2mph /  3.2km/h 3mph /  4.8km/h 83% 0.00in /  0mm 208 W/m2
07:50 61.5 °F /  16.4 °C 55.6 °F /  13.1 °C 30.25in /  1024.3hPa SSE 3mph /  4.8km/h 5mph /  8km/h 81% 0.00in /  0mm 228 W/m2
08:00 61.9 °F /  16.6 °C 56 °F /  13.3 °C 30.25in /  1024.3hPa South 2mph /  3.2km/h 5mph /  8km/h 81% 0.00in /  0mm 234 W/m2
08:10 62.2 °F /  16.8 °C 56 °F /  13.3 °C 30.26in /  1024.6hPa South 1mph /  1.6km/h 5mph /  8km/h 80% 0.00in /  0mm 266 W/m2
08:20 62.6 °F /  17 °C 56.3 °F /  13.5 °C 30.30in /  1026hPa South 2mph /  3.2km/h 5mph /  8km/h 80% 0.00in /  0mm 412 W/m2
08:30 63 °F /  17.2 °C 56.4 °F /  13.6 °C 30.30in /  1026hPa South 3mph /  4.8km/h 8mph /  12.9km/h 79% 0.00in /  0mm 548 W/m2
08:40 63.5 °F /  17.5 °C 56.5 °F /  13.6 °C 30.30in /  1026hPa SE 7mph /  11.3km/h 11mph /  17.7km/h 78% 0.00in /  0mm 554 W/m2
08:50 63.9 °F /  17.7 °C 55.8 °F /  13.2 °C 30.30in /  1026hPa SSW 3mph /  4.8km/h 7mph /  11.3km/h 75% 0.00in /  0mm 564 W/m2
09:00 65.1 °F /  18.4 °C 57 °F /  13.9 °C 30.30in /  1026hPa SSW 2mph /  3.2km/h 4mph /  6.4km/h 75% 0.00in /  0mm 570 W/m2
09:10 66 °F /  18.9 °C 57.1 °F /  13.9 °C 30.30in /  1026hPa South 1mph /  1.6km/h 5mph /  8km/h 73% 0.00in /  0mm 628 W/m2
09:20 66.7 °F /  19.3 °C 56.6 °F /  13.7 °C 30.30in /  1026hPa SW 3mph /  4.8km/h 5mph /  8km/h 70% 0.00in /  0mm 607 W/m2
09:30 67.3 °F /  19.6 °C 56.8 °F /  13.8 °C 30.29in /  1025.6hPa Calm   5mph /  8km/h 69% 0.00in /  0mm 639 W/m2
09:40 68 °F /  20 °C 57.1 °F /  13.9 °C 30.29in /  1025.6hPa SSE 3mph /  4.8km/h 8mph /  12.9km/h 68% 0.00in /  0mm 739 W/m2
09:50 68.5 °F /  20.3 °C 57.5 °F /  14.2 °C 30.28in /  1025.3hPa SSE 1mph /  1.6km/h 7mph /  11.3km/h 68% 0.00in /  0mm 784 W/m2
10:00 68.9 °F /  20.5 °C 57.5 °F /  14.2 °C 30.28in /  1025.3hPa WSW 1mph /  1.6km/h 7mph /  11.3km/h 67% 0.00in /  0mm 802 W/m2
10:10 69.4 °F /  20.8 °C 58 °F /  14.4 °C 30.28in /  1025.3hPa West 3mph /  4.8km/h 6mph /  9.7km/h 67% 0.00in /  0mm 825 W/m2
10:20 70.3 °F /  21.3 °C 58 °F /  14.4 °C 30.28in /  1025.3hPa WSW 5mph /  8km/h 8mph /  12.9km/h 65% 0.00in /  0mm 844 W/m2
10:30 70.9 °F /  21.6 °C 58.5 °F /  14.7 °C 30.28in /  1025.3hPa WSW 2mph /  3.2km/h 7mph /  11.3km/h 65% 0.00in /  0mm 739 W/m2
10:40 71.1 °F /  21.7 °C 57.8 °F /  14.3 °C 30.27in /  1024.9hPa West 2mph /  3.2km/h 7mph /  11.3km/h 63% 0.00in /  0mm 368 W/m2
10:50 71.6 °F /  22 °C 58.8 °F /  14.9 °C 30.27in /  1024.9hPa WSW 3mph /  4.8km/h 6mph /  9.7km/h 64% 0.00in /  0mm 392 W/m2
11:00 71.6 °F /  22 °C 58.3 °F /  14.6 °C 30.27in /  1024.9hPa WNW 1mph /  1.6km/h 5mph /  8km/h 63% 0.00in /  0mm 323 W/m2
11:10 71.4 °F /  21.9 °C 58.2 °F /  14.6 °C 30.27in /  1024.9hPa WSW 5mph /  8km/h 8mph /  12.9km/h 63% 0.00in /  0mm 491 W/m2
11:20 71.8 °F /  22.1 °C 58.5 °F /  14.7 °C 30.27in /  1024.9hPa SW 2mph /  3.2km/h 10mph /  16.1km/h 63% 0.00in /  0mm 492 W/m2
11:30 71.8 °F /  22.1 °C 58.5 °F /  14.7 °C 30.27in /  1024.9hPa SW 3mph /  4.8km/h 8mph /  12.9km/h 63% 0.00in /  0mm 534 W/m2
11:40 72 °F /  22.2 °C 58.7 °F /  14.8 °C 30.27in /  1024.9hPa WSW 1mph /  1.6km/h 8mph /  12.9km/h 63% 0.00in /  0mm 852 W/m2
11:50 72.5 °F /  22.5 °C 59.2 °F /  15.1 °C 30.26in /  1024.6hPa West 2mph /  3.2km/h 7mph /  11.3km/h 63% 0.00in /  0mm 684 W/m2
12:00 73.1 °F /  22.8 °C 59.3 °F /  15.2 °C 30.25in /  1024.3hPa South 3mph /  4.8km/h 7mph /  11.3km/h 62% 0.00in /  0mm 956 W/m2
12:10 73.6 °F /  23.1 °C 58.3 °F /  14.6 °C 30.25in /  1024.3hPa SW 3mph /  4.8km/h 7mph /  11.3km/h 59% 0.00in /  0mm 402 W/m2
12:20 73.8 °F /  23.2 °C 59 °F /  15 °C 30.25in /  1024.3hPa WSW 3mph /  4.8km/h 5mph /  8km/h 60% 0.00in /  0mm 961 W/m2
12:30 74.5 °F /  23.6 °C 58.7 °F /  14.8 °C 30.25in /  1024.3hPa WSW 1mph /  1.6km/h 6mph /  9.7km/h 58% 0.00in /  0mm 636 W/m2
12:40 74.1 °F /  23.4 °C 58.9 °F /  14.9 °C 30.24in /  1023.9hPa WSW 1mph /  1.6km/h 5mph /  8km/h 59% 0.00in /  0mm 422 W/m2
12:50 74.1 °F /  23.4 °C 58.4 °F /  14.7 °C 30.24in /  1023.9hPa Calm   6mph /  9.7km/h 58% 0.00in /  0mm 664 W/m2
13:00 74.8 °F /  23.8 °C 59.5 °F /  15.3 °C 30.24in /  1023.9hPa WSW 2mph /  3.2km/h 5mph /  8km/h 59% 0.00in /  0mm 569 W/m2
13:10 75.4 °F /  24.1 °C 60.1 °F /  15.6 °C 30.24in /  1023.9hPa SW 3mph /  4.8km/h 7mph /  11.3km/h 59% 0.00in /  0mm 799 W/m2
13:20 75.4 °F /  24.1 °C 59.6 °F /  15.3 °C 30.24in /  1023.9hPa WNW 3mph /  4.8km/h 7mph /  11.3km/h 58% 0.00in /  0mm 406 W/m2
13:30 75.2 °F /  24 °C 59.9 °F /  15.5 °C 30.24in /  1023.9hPa Calm   7mph /  11.3km/h 59% 0.00in /  0mm 929 W/m2
13:40 76.1 °F /  24.5 °C 60.3 °F /  15.7 °C 30.23in /  1023.6hPa WSW 2mph /  3.2km/h 6mph /  9.7km/h 58% 0.00in /  0mm 796 W/m2
13:50 76.3 °F /  24.6 °C 59.9 °F /  15.5 °C 30.23in /  1023.6hPa West 1mph /  1.6km/h 3mph /  4.8km/h 57% 0.00in /  0mm 785 W/m2
14:00 77 °F /  25 °C 61.1 °F /  16.2 °C 30.22in /  1023.2hPa WSW 2mph /  3.2km/h 6mph /  9.7km/h 58% 0.00in /  0mm 846 W/m2
14:10 77.9 °F /  25.5 °C 61.4 °F /  16.3 °C 30.22in /  1023.2hPa NE 5mph /  8km/h 8mph /  12.9km/h 57% 0.00in /  0mm 839 W/m2
14:20 78.3 °F /  25.7 °C 61.8 °F /  16.6 °C 30.22in /  1023.2hPa NW 1mph /  1.6km/h 3mph /  4.8km/h 57% 0.00in /  0mm 652 W/m2
14:30 78.3 °F /  25.7 °C 60.8 °F /  16 °C 30.22in /  1023.2hPa NNW 2mph /  3.2km/h 7mph /  11.3km/h 55% 0.00in /  0mm 564 W/m2
14:40 78.3 °F /  25.7 °C 62.3 °F /  16.8 °C 30.21in /  1022.9hPa North 1mph /  1.6km/h 6mph /  9.7km/h 58% 0.00in /  0mm 825 W/m2
14:50 78.8 °F /  26 °C 61.3 °F /  16.3 °C 30.21in /  1022.9hPa North 2mph /  3.2km/h 6mph /  9.7km/h 55% 0.00in /  0mm 790 W/m2
15:00 79 °F /  26.1 °C 63 °F /  17.2 °C 30.20in /  1022.6hPa Calm   5mph /  8km/h 58% 0.00in /  0mm 537 W/m2
15:10 79.2 °F /  26.2 °C 62.6 °F /  17 °C 30.20in /  1022.6hPa North 1mph /  1.6km/h 6mph /  9.7km/h 57% 0.00in /  0mm 500 W/m2
15:20 79 °F /  26.1 °C 62.4 °F /  16.9 °C 30.20in /  1022.6hPa NNW 1mph /  1.6km/h 5mph /  8km/h 57% 0.00in /  0mm 445 W/m2
15:30 79 °F /  26.1 °C 63 °F /  17.2 °C 30.19in /  1022.2hPa NNW 2mph /  3.2km/h 6mph /  9.7km/h 58% 0.00in /  0mm 442 W/m2
15:40 79 °F /  26.1 °C 62.9 °F /  17.2 °C 30.19in /  1022.2hPa North 3mph /  4.8km/h 7mph /  11.3km/h 58% 0.00in /  0mm 297 W/m2
15:50 78.7 °F /  25.9 °C 63.6 °F /  17.6 °C 30.19in /  1022.2hPa North 2mph /  3.2km/h 5mph /  8km/h 60% 0.00in /  0mm 452 W/m2
16:00 78.6 °F /  25.9 °C 63.6 °F /  17.6 °C 30.19in /  1022.2hPa North 3mph /  4.8km/h 7mph /  11.3km/h 60% 0.00in /  0mm 443 W/m2
16:10 78.8 °F /  26 °C 63.3 °F /  17.4 °C 30.19in /  1022.2hPa North 2mph /  3.2km/h 7mph /  11.3km/h 59% 0.00in /  0mm 569 W/m2
16:20 79.2 °F /  26.2 °C 64.1 °F /  17.8 °C 30.19in /  1022.2hPa North 2mph /  3.2km/h 7mph /  11.3km/h 60% 0.00in /  0mm 579 W/m2
16:30 79.5 °F /  26.4 °C 64.4 °F /  18 °C 30.19in /  1022.2hPa North 3mph /  4.8km/h 8mph /  12.9km/h 60% 0.00in /  0mm 400 W/m2
16:40 79.3 °F /  26.3 °C 63.8 °F /  17.7 °C 30.18in /  1021.9hPa North 5mph /  8km/h 9mph /  14.5km/h 59% 0.00in /  0mm 256 W/m2
16:50 79 °F /  26.1 °C 63.9 °F /  17.7 °C 30.18in /  1021.9hPa North 2mph /  3.2km/h 7mph /  11.3km/h 60% 0.00in /  0mm 362 W/m2
17:00 79.2 °F /  26.2 °C 64.1 °F /  17.8 °C 30.18in /  1021.9hPa North 5mph /  8km/h 8mph /  12.9km/h 60% 0.00in /  0mm 437 W/m2
17:10 79.3 °F /  26.3 °C 64.2 °F /  17.9 °C 30.18in /  1021.9hPa North 2mph /  3.2km/h 8mph /  12.9km/h 60% 0.00in /  0mm 429 W/m2
17:20 79.3 °F /  26.3 °C 63.8 °F /  17.7 °C 30.18in /  1021.9hPa North 3mph /  4.8km/h 7mph /  11.3km/h 59% 0.00in /  0mm 398 W/m2
17:30 79.3 °F /  26.3 °C 64.2 °F /  17.9 °C 30.18in /  1021.9hPa North 5mph /  8km/h 8mph /  12.9km/h 60% 0.00in /  0mm 364 W/m2
17:40 79.2 °F /  26.2 °C 63.6 °F /  17.6 °C 30.18in /  1021.9hPa North 2mph /  3.2km/h 7mph /  11.3km/h 59% 0.00in /  0mm 204 W/m2
17:50 78.8 °F /  26 °C 63.7 °F /  17.6 °C 30.18in /  1021.9hPa NNW 1mph /  1.6km/h 6mph /  9.7km/h 60% 0.00in /  0mm 155 W/m2
18:00 78.4 °F /  25.8 °C 63.4 °F /  17.4 °C 30.18in /  1021.9hPa NNW 3mph /  4.8km/h 8mph /  12.9km/h 60% 0.00in /  0mm 240 W/m2
18:10 78.1 °F /  25.6 °C 63.1 °F /  17.3 °C 30.18in /  1021.9hPa NNW 3mph /  4.8km/h 7mph /  11.3km/h 60% 0.00in /  0mm 224 W/m2
18:20 77.7 °F /  25.4 °C 62.7 °F /  17.1 °C 30.17in /  1021.6hPa NNW 5mph /  8km/h 7mph /  11.3km/h 60% 0.00in /  0mm 146 W/m2
18:30 77.2 °F /  25.1 °C 63.2 °F /  17.3 °C 30.17in /  1021.6hPa NNW 2mph /  3.2km/h 8mph /  12.9km/h 62% 0.00in /  0mm 159 W/m2
18:40 77 °F /  25 °C 63 °F /  17.2 °C 30.17in /  1021.6hPa NNW 3mph /  4.8km/h 7mph /  11.3km/h 62% 0.00in /  0mm 142 W/m2
18:50 76.8 °F /  24.9 °C 62.8 °F /  17.1 °C 30.17in /  1021.6hPa NNW 2mph /  3.2km/h 6mph /  9.7km/h 62% 0.00in /  0mm 126 W/m2
19:00 76.6 °F /  24.8 °C 62.6 °F /  17 °C 30.17in /  1021.6hPa WNW 1mph /  1.6km/h 5mph /  8km/h 62% 0.00in /  0mm 101 W/m2
19:10 76.5 °F /  24.7 °C 62.9 °F /  17.2 °C 30.17in /  1021.6hPa NNW 2mph /  3.2km/h 7mph /  11.3km/h 63% 0.00in /  0mm 78 W/m2
19:20 75.9 °F /  24.4 °C 62.4 °F /  16.9 °C 30.17in /  1021.6hPa NNW 1mph /  1.6km/h 7mph /  11.3km/h 63% 0.00in /  0mm 56 W/m2
19:30 75.5 °F /  24.2 °C 62.5 °F /  16.9 °C 30.17in /  1021.6hPa West 1mph /  1.6km/h 2mph /  3.2km/h 64% 0.00in /  0mm 36 W/m2
19:40 75 °F /  23.9 °C 62 °F /  16.7 °C 30.17in /  1021.6hPa NW 2mph /  3.2km/h 5mph /  8km/h 64% 0.00in /  0mm 23 W/m2
19:50 74.3 °F /  23.5 °C 62.6 °F /  17 °C 30.17in /  1021.6hPa WSW 1mph /  1.6km/h 2mph /  3.2km/h 67% 0.00in /  0mm 8 W/m2
20:00 73.8 °F /  23.2 °C 62.5 °F /  16.9 °C 30.17in /  1021.6hPa Calm   2mph /  3.2km/h 68% 0.00in /  0mm 0 W/m2
20:10 73 °F /  22.8 °C 62.6 °F /  17 °C 30.17in /  1021.6hPa SW 1mph /  1.6km/h 2mph /  3.2km/h 70% 0.00in /  0mm 0 W/m2
20:20 71.8 °F /  22.1 °C 63 °F /  17.2 °C 30.17in /  1021.6hPa South 1mph /  1.6km/h 3mph /  4.8km/h 74% 0.00in /  0mm 0 W/m2
20:30 70.9 °F /  21.6 °C 62.6 °F /  17 °C 30.17in /  1021.6hPa South 1mph /  1.6km/h 3mph /  4.8km/h 75% 0.00in /  0mm 0 W/m2
20:40 70.3 °F /  21.3 °C 62 °F /  16.7 °C 30.18in /  1021.9hPa SSW 1mph /  1.6km/h 3mph /  4.8km/h 75% 0.00in /  0mm 0 W/m2
20:50 69.8 °F /  21 °C 62.2 °F /  16.8 °C 30.18in /  1021.9hPa SSW 1mph /  1.6km/h 2mph /  3.2km/h 77% 0.00in /  0mm 0 W/m2
21:00 69.1 °F /  20.6 °C 61.9 °F /  16.6 °C 30.18in /  1021.9hPa SSW 1mph /  1.6km/h 3mph /  4.8km/h 78% 0.00in /  0mm 0 W/m2
21:10 68.4 °F /  20.2 °C 61.2 °F /  16.2 °C 30.18in /  1021.9hPa SW 2mph /  3.2km/h 3mph /  4.8km/h 78% 0.00in /  0mm 0 W/m2
21:20 67.6 °F /  19.8 °C 60.8 °F /  16 °C 30.18in /  1021.9hPa WSW 2mph /  3.2km/h 3mph /  4.8km/h 79% 0.00in /  0mm 0 W/m2
21:30 67 °F /  19.4 °C 60.3 °F /  15.7 °C 30.18in /  1021.9hPa West 2mph /  3.2km/h 3mph /  4.8km/h 79% 0.00in /  0mm 0 W/m2
21:40 66.5 °F /  19.2 °C 60.1 °F /  15.6 °C 30.18in /  1021.9hPa SW 1mph /  1.6km/h 3mph /  4.8km/h 80% 0.00in /  0mm 0 W/m2
21:50 66 °F /  18.9 °C 59.6 °F /  15.3 °C 30.19in /  1022.2hPa WSW 1mph /  1.6km/h 2mph /  3.2km/h 80% 0.00in /  0mm 0 W/m2
22:00 65.6 °F /  18.7 °C 59.6 °F /  15.3 °C 30.19in /  1022.2hPa SW 1mph /  1.6km/h 3mph /  4.8km/h 81% 0.00in /  0mm 0 W/m2
22:10 65.1 °F /  18.4 °C 59.1 °F /  15.1 °C 30.19in /  1022.2hPa WSW 2mph /  3.2km/h 3mph /  4.8km/h 81% 0.00in /  0mm 0 W/m2
22:20 64.6 °F /  18.1 °C 59.3 °F /  15.2 °C 30.19in /  1022.2hPa West 1mph /  1.6km/h 3mph /  4.8km/h 83% 0.00in /  0mm 0 W/m2
22:30 64.2 °F /  17.9 °C 58.9 °F /  14.9 °C 30.19in /  1022.2hPa WSW 1mph /  1.6km/h 2mph /  3.2km/h 83% 0.00in /  0mm 0 W/m2
22:40 64 °F /  17.8 °C 59.1 °F /  15.1 °C 30.19in /  1022.2hPa Calm   2mph /  3.2km/h 84% 0.00in /  0mm 0 W/m2
22:50 63.7 °F /  17.6 °C 58.8 °F /  14.9 °C 30.19in /  1022.2hPa Calm   2mph /  3.2km/h 84% 0.00in /  0mm 0 W/m2
23:00 63.5 °F /  17.5 °C 58.9 °F /  14.9 °C 30.19in /  1022.2hPa Calm   2mph /  3.2km/h 85% 0.00in /  0mm 0 W/m2
23:10 63.5 °F /  17.5 °C 58.9 °F /  14.9 °C 30.19in /  1022.2hPa Calm   2mph /  3.2km/h 85% 0.00in /  0mm 0 W/m2
23:20 63.3 °F /  17.4 °C 58.7 °F /  14.8 °C 30.19in /  1022.2hPa Calm   2mph /  3.2km/h 85% 0.00in /  0mm 0 W/m2
23:30 63.1 °F /  17.3 °C 58.6 °F /  14.8 °C 30.19in /  1022.2hPa Calm   2mph /  3.2km/h 85% 0.00in /  0mm 0 W/m2
23:40 62.9 °F /  17.2 °C 58.3 °F /  14.6 °C 30.19in /  1022.2hPa SE 1mph /  1.6km/h 4mph /  6.4km/h 85% 0.00in /  0mm 0 W/m2
23:50 62.4 °F /  16.9 °C 58.2 °F /  14.6 °C 30.19in /  1022.2hPa SSE 1mph /  1.6km/h 3mph /  4.8km/h 86% 0.00in /  0mm 0 W/m2
Knjazevac, Serbia
Compliments of Weather Underground - 2 mb